Time;durP1;ratioP1;P1;durP2;ratioP2;P2;SDS_P1;SDS_P2;PMS_P1;PMS_P2;Temp;Humidity;BMP_temperature;BMP_pressure;BME280_temperature;BME280_humidity;BME280_pressure;Samples;Min_cycle;Max_cycle;Signal;HPM_P1;HPM_P2
2023/05/03 00:01:36;;;;;;;4.55;0.10;;;5.00;99.90;;;;;;5073306;28;20102;-73
2023/05/03 00:04:02;;;;;;;1.50;0.43;;;5.00;99.90;;;;;;5073894;28;20020;-74
2023/05/03 00:06:28;;;;;;;0.85;0.08;;;5.00;99.90;;;;;;5073264;28;20365;-74
2023/05/03 00:08:53;;;;;;;1.90;0.32;;;5.00;99.90;;;;;;5073216;28;20017;-73
2023/05/03 00:11:19;;;;;;;0.75;0.15;;;5.00;99.90;;;;;;5073079;28;20115;-73
2023/05/03 00:13:45;;;;;;;3.30;0.52;;;4.90;99.90;;;;;;5055222;28;20013;-73
2023/05/03 00:16:11;;;;;;;0.47;0.20;;;4.90;99.90;;;;;;5073068;28;20541;-74
2023/05/03 00:18:37;;;;;;;3.20;0.50;;;4.80;99.90;;;;;;5055094;28;20017;-74
2023/05/03 00:21:03;;;;;;;2.65;0.25;;;4.80;99.90;;;;;;5073097;28;20036;-74
2023/05/03 00:23:28;;;;;;;1.40;0.10;;;4.80;99.90;;;;;;5073121;28;20067;-74
2023/05/03 00:25:55;;;;;;;7.30;0.30;;;4.80;99.90;;;;;;5055116;28;20032;-74
2023/05/03 00:28:21;;;;;;;1.63;0.10;;;4.70;99.90;;;;;;5073511;28;20028;-74
2023/05/03 00:30:47;;;;;;;4.72;0.55;;;4.70;99.90;;;;;;5054927;28;20437;-74
2023/05/03 00:33:13;;;;;;;2.80;0.20;;;4.70;99.90;;;;;;5073037;28;20016;-74
2023/05/03 00:35:39;;;;;;;1.65;0.32;;;4.70;99.90;;;;;;5072968;28;20028;-74
2023/05/03 00:38:05;;;;;;;0.57;0.25;;;4.60;99.90;;;;;;5072836;28;20476;-73
2023/05/03 00:40:31;;;;;;;2.90;0.08;;;4.60;99.90;;;;;;5055079;28;20024;-74
2023/05/03 00:42:56;;;;;;;4.60;0.10;;;4.60;99.90;;;;;;5072883;28;20103;-74
2023/05/03 00:45:22;;;;;;;3.50;0.25;;;4.60;99.90;;;;;;5056484;28;20029;-74
2023/05/03 00:47:47;;;;;;;2.67;0.00;;;4.60;99.90;;;;;;5076693;28;20024;-74
2023/05/03 00:50:13;;;;;;;1.05;0.00;;;4.50;99.90;;;;;;5077282;28;20024;-74
2023/05/03 00:52:39;;;;;;;3.22;0.10;;;4.50;99.90;;;;;;5076791;28;20020;-74
2023/05/03 00:55:07;;;;;;;3.20;0.20;;;4.50;99.90;;;;;;5076651;28;20020;-74
2023/05/03 00:57:32;;;;;;;0.68;0.00;;;4.50;99.90;;;;;;5076544;28;20035;-74
2023/05/03 00:59:58;;;;;;;3.22;0.10;;;4.50;99.90;;;;;;5059483;28;20029;-73
2023/05/03 01:02:24;;;;;;;4.72;0.52;;;4.50;99.90;;;;;;5076615;28;20036;-74
2023/05/03 01:04:51;;;;;;;1.45;0.28;;;4.50;99.90;;;;;;5077088;28;20045;-74
2023/05/03 01:07:55;;;;;;;2.65;0.38;;;4.50;99.90;;;;;;5077011;28;20041;-74
2023/05/03 01:10:32;;;;;;;1.73;0.10;;;4.50;99.90;;;;;;5076455;28;20116;-74
2023/05/03 01:13:37;;;;;;;6.30;0.68;;;4.40;99.90;;;;;;5058385;28;20078;-73
2023/05/03 01:16:13;;;;;;;2.92;0.10;;;4.40;99.90;;;;;;5076441;28;20384;-73
2023/05/03 01:18:42;;;;;;;2.13;0.10;;;4.40;99.90;;;;;;5076240;28;20021;-73
2023/05/03 01:21:09;;;;;;;2.05;0.25;;;4.40;99.90;;;;;;5076376;28;20024;-74
2023/05/03 01:23:55;;;;;;;1.55;0.57;;;4.40;99.90;;;;;;5076243;28;20028;-74
2023/05/03 01:26:26;;;;;;;3.10;0.38;;;4.40;99.90;;;;;;5076394;28;20032;-74
2023/05/03 01:28:52;;;;;;;1.92;0.45;;;4.30;99.90;;;;;;5076643;28;20119;-74
2023/05/03 01:31:39;;;;;;;3.85;0.68;;;4.30;99.90;;;;;;5076716;28;20029;-74
2023/05/03 01:34:07;;;;;;;3.60;0.30;;;4.30;99.90;;;;;;5076026;28;20016;-74
2023/05/03 01:36:34;;;;;;;3.28;0.20;;;4.30;99.90;;;;;;5075982;28;20074;-73
2023/05/03 01:39:06;;;;;;;1.17;0.20;;;4.20;99.90;;;;;;5075922;28;20059;-74
2023/05/03 01:41:34;;;;;;;5.53;1.25;;;4.20;99.90;;;;;;5075923;28;20072;-74
2023/05/03 01:44:02;;;;;;;5.88;0.60;;;4.20;99.90;;;;;;5076380;28;20021;-74
2023/05/03 01:46:27;;;;;;;5.18;1.25;;;4.20;99.90;;;;;;5057768;28;20028;-73
2023/05/03 01:48:53;;;;;;;2.88;0.52;;;4.10;99.90;;;;;;5057782;28;20021;-73
2023/05/03 01:51:19;;;;;;;1.42;0.10;;;4.10;99.90;;;;;;5075610;28;20029;-74
2023/05/03 01:53:44;;;;;;;3.05;0.20;;;4.10;99.90;;;;;;5075628;28;20021;-74
2023/05/03 01:56:10;;;;;;;5.15;0.73;;;4.10;99.90;;;;;;5075456;28;20020;-74
2023/05/03 01:58:36;;;;;;;5.15;0.43;;;4.10;99.90;;;;;;5075335;28;20489;-74
2023/05/03 02:01:04;;;;;;;6.97;0.60;;;4.10;99.90;;;;;;5075410;28;20021;-74
2023/05/03 02:03:30;;;;;;;;;;;4.10;99.90;;;;;;5058116;28;20020;-74
2023/05/03 02:05:55;;;;;;;4.05;0.30;;;4.10;99.90;;;;;;5075398;28;19905;-74
2023/05/03 02:08:24;;;;;;;3.15;0.10;;;4.10;99.90;;;;;;5075320;28;20476;-74
2023/05/03 02:10:49;;;;;;;2.42;0.25;;;4.10;99.90;;;;;;5057419;28;20055;-75
2023/05/03 02:13:15;;;;;;;2.00;0.40;;;4.00;99.90;;;;;;5075275;28;20044;-73
2023/05/03 02:15:41;;;;;;;4.45;0.40;;;4.00;99.90;;;;;;5075813;28;20096;-73
2023/05/03 02:18:07;;;;;;;3.25;0.30;;;4.00;99.90;;;;;;5075155;28;20472;-74
2023/05/03 02:20:36;;;;;;;3.03;0.10;;;4.00;99.90;;;;;;5057555;28;20033;-74
2023/05/03 02:23:02;;;;;;;8.68;0.30;;;4.00;99.90;;;;;;5075182;28;20021;-74
2023/05/03 02:25:28;;;;;;;4.07;0.30;;;4.00;99.90;;;;;;5075686;28;20365;-74
2023/05/03 02:27:54;;;;;;;0.82;0.20;;;4.00;99.90;;;;;;5057022;28;20028;-74
2023/05/03 02:30:19;;;;;;;4.28;0.15;;;4.00;99.90;;;;;;5075025;28;20024;-74
2023/05/03 02:32:45;;;;;;;4.90;0.52;;;4.00;99.90;;;;;;5057333;28;20213;-74
2023/05/03 02:35:10;;;;;;;1.80;0.13;;;4.00;99.90;;;;;;5056938;28;20498;-74
2023/05/03 02:37:36;;;;;;;2.55;0.10;;;4.00;99.90;;;;;;5074679;28;20472;-75
2023/05/03 02:40:04;;;;;;;2.55;0.30;;;4.00;99.90;;;;;;5074753;28;20027;-74
2023/05/03 02:42:30;;;;;;;1.20;0.00;;;4.00;99.90;;;;;;5075215;28;20027;-74
2023/05/03 02:44:55;;;;;;;0.82;0.15;;;4.00;99.90;;;;;;5075208;28;20020;-74
2023/05/03 02:47:21;;;;;;;3.80;0.20;;;4.10;99.90;;;;;;5074493;28;20476;-74
2023/05/03 02:49:47;;;;;;;0.65;0.10;;;4.00;99.90;;;;;;5074404;28;20391;-74
2023/05/03 02:52:15;;;;;;;4.00;0.43;;;4.10;99.90;;;;;;5075121;28;20108;-73
2023/05/03 02:54:41;;;;;;;2.53;0.20;;;4.10;99.90;;;;;;5056658;28;20013;-74
2023/05/03 02:57:07;;;;;;;3.22;0.10;;;4.10;99.90;;;;;;5074383;28;20051;-73
2023/05/03 02:59:32;;;;;;;0.73;0.10;;;4.00;99.90;;;;;;5074616;28;20028;-74
2023/05/03 03:01:58;;;;;;;3.40;0.40;;;4.00;99.90;;;;;;5075140;28;20025;-74
2023/05/03 03:04:24;;;;;;;1.95;0.10;;;3.90;99.90;;;;;;5074540;28;20464;-74
2023/05/03 03:06:52;;;;;;;0.85;0.10;;;3.90;99.90;;;;;;5056459;28;20017;-74
2023/05/03 03:09:18;;;;;;;8.63;1.17;;;3.80;99.90;;;;;;5056203;28;20055;-74
2023/05/03 03:11:44;;;;;;;1.08;0.10;;;3.80;99.90;;;;;;5075153;28;20017;-73
2023/05/03 03:14:09;;;;;;;4.90;0.20;;;3.80;99.90;;;;;;5056501;28;20032;-74
2023/05/03 03:16:35;;;;;;;2.95;0.10;;;3.70;99.90;;;;;;5074388;28;20021;-74
2023/05/03 03:19:01;;;;;;;1.27;0.10;;;3.60;99.90;;;;;;5074071;28;20016;-73
2023/05/03 03:21:27;;;;;;;2.92;0.50;;;3.60;99.90;;;;;;5074252;28;20033;-73
2023/05/03 03:23:53;;;;;;;2.97;0.22;;;3.50;99.90;;;;;;5056269;28;20383;-73
2023/05/03 03:26:22;;;;;;;4.78;0.25;;;3.40;99.90;;;;;;5074116;28;20025;-73
2023/05/03 03:28:47;;;;;;;1.80;0.10;;;3.30;99.90;;;;;;5056137;28;20029;-74
2023/05/03 03:31:13;;;;;;;1.95;0.20;;;3.30;99.90;;;;;;5073956;28;20036;-74
2023/05/03 03:33:38;;;;;;;0.73;0.38;;;3.20;99.90;;;;;;5056214;28;20082;-74
2023/05/03 03:36:06;;;;;;;2.67;0.20;;;3.20;99.90;;;;;;5056232;28;20024;-74
2023/05/03 03:38:32;;;;;;;0.47;0.32;;;3.10;99.90;;;;;;5074323;28;20009;-74
2023/05/03 03:40:58;;;;;;;5.68;0.32;;;3.10;99.90;;;;;;5074125;28;20039;-74
2023/05/03 03:43:23;;;;;;;2.53;0.20;;;3.10;99.90;;;;;;5074005;28;20032;-74
2023/05/03 03:45:49;;;;;;;3.97;0.57;;;3.00;99.90;;;;;;5074547;28;20017;-74
2023/05/03 03:48:14;;;;;;;4.60;0.22;;;3.00;99.90;;;;;;5074320;28;20028;-74
2023/05/03 03:50:40;;;;;;;3.78;0.40;;;3.00;99.90;;;;;;5074806;28;20070;-74
2023/05/03 03:53:08;;;;;;;3.72;0.20;;;2.90;99.90;;;;;;5074255;28;20024;-74
2023/05/03 03:55:33;;;;;;;0.93;0.10;;;2.90;99.90;;;;;;5075194;28;20017;-74
2023/05/03 03:57:59;;;;;;;2.75;0.30;;;2.90;99.90;;;;;;5074982;28;20032;-74
2023/05/03 04:00:25;;;;;;;2.20;0.40;;;2.80;99.90;;;;;;5074760;28;20021;-74
2023/05/03 04:02:50;;;;;;;1.60;0.20;;;2.80;99.90;;;;;;5074622;28;20030;-74
2023/05/03 04:05:16;;;;;;;4.85;0.55;;;2.80;99.90;;;;;;5074458;28;20542;-74
2023/05/03 04:07:41;;;;;;;2.83;0.38;;;2.70;99.90;;;;;;5074547;28;20028;-73
2023/05/03 04:10:07;;;;;;;1.63;0.20;;;2.70;99.90;;;;;;5076062;28;20386;-73
2023/05/03 04:12:33;;;;;;;1.10;0.38;;;2.70;99.90;;;;;;5074954;28;20110;-73
2023/05/03 04:14:58;;;;;;;1.48;0.28;;;2.60;99.90;;;;;;5057196;28;20028;-74
2023/05/03 04:17:24;;;;;;;5.45;0.25;;;2.70;99.90;;;;;;5056629;28;20365;-74
2023/05/03 04:19:51;;;;;;;3.42;0.25;;;2.70;99.90;;;;;;5055927;28;20051;-74
2023/05/03 04:22:16;;;;;;;2.45;0.43;;;2.70;99.90;;;;;;5057453;28;20082;-74
2023/05/03 04:24:42;;;;;;;3.80;1.00;;;2.70;99.90;;;;;;5057024;28;20028;-74
2023/05/03 04:27:08;;;;;;;5.32;0.47;;;2.70;99.90;;;;;;5075097;28;20431;-73
2023/05/03 04:29:34;;;;;;;3.70;0.45;;;2.70;99.90;;;;;;5074843;28;20082;-73
2023/05/03 04:32:00;;;;;;;2.22;0.88;;;1.80;99.90;;;;;;5075125;28;20028;-74
2023/05/03 04:34:26;;;;;;;1.42;0.30;;;5.10;99.90;;;;;;5075465;28;20016;-73
2023/05/03 04:36:52;;;;;;;1.95;0.30;;;2.70;99.90;;;;;;5075127;28;20529;-73
2023/05/03 04:39:18;;;;;;;4.20;0.57;;;2.70;99.90;;;;;;5075034;28;20100;-73
2023/05/03 04:41:44;;;;;;;3.33;0.60;;;2.70;99.90;;;;;;5057234;28;20055;-74
2023/05/03 04:44:10;;;;;;;3.67;0.75;;;2.70;99.90;;;;;;5075288;28;20029;-74
2023/05/03 04:46:35;;;;;;;1.20;0.28;;;2.80;99.90;;;;;;5075756;28;20024;-74
2023/05/03 04:49:01;;;;;;;1.17;0.20;;;2.80;99.90;;;;;;5075540;28;20024;-74
2023/05/03 04:51:27;;;;;;;1.55;0.30;;;2.80;99.90;;;;;;5076311;28;20024;-74
2023/05/03 04:53:52;;;;;;;3.17;0.30;;;2.90;99.90;;;;;;5076333;28;20459;-74
2023/05/03 04:56:24;;;;;;;4.35;0.80;;;2.90;99.90;;;;;;5058435;28;20070;-74
2023/05/03 04:58:51;;;;;;;4.78;0.68;;;3.00;99.90;;;;;;5075004;28;20399;-73
2023/05/03 05:01:17;;;;;;;6.82;0.40;;;3.10;99.90;;;;;;5075323;28;20025;-74
2023/05/03 05:03:42;;;;;;;5.63;0.90;;;3.10;99.90;;;;;;5074981;28;20052;-73
2023/05/03 05:06:11;;;;;;;4.63;0.65;;;3.20;99.90;;;;;;5074674;28;20032;-74
2023/05/03 05:08:37;;;;;;;0.93;0.25;;;3.40;99.90;;;;;;5074472;28;20029;-73
2023/05/03 05:11:03;;;;;;;4.28;0.50;;;3.50;99.90;;;;;;5074730;28;20369;-73
2023/05/03 05:13:29;;;;;;;4.03;0.47;;;3.70;99.90;;;;;;5057855;28;20523;-74
2023/05/03 05:15:55;;;;;;;3.28;0.75;;;3.90;99.90;;;;;;5075711;28;20475;-73
2023/05/03 05:18:20;;;;;;;3.40;0.80;;;4.00;99.90;;;;;;5074740;28;20020;-74
2023/05/03 05:20:49;;;;;;;2.53;0.20;;;4.10;99.90;;;;;;5074683;28;20028;-74
2023/05/03 05:23:15;;;;;;;3.38;0.63;;;4.20;99.90;;;;;;5074212;28;20031;-74
2023/05/03 05:25:40;;;;;;;6.72;0.22;;;4.40;99.90;;;;;;5074195;28;20021;-74
2023/05/03 05:28:10;;;;;;;5.15;0.65;;;4.50;99.90;;;;;;5073599;28;20570;-73
2023/05/03 05:30:35;;;;;;;5.35;0.90;;;4.60;99.90;;;;;;5073946;28;20112;-73
2023/05/03 05:33:02;;;;;;;2.50;0.20;;;4.70;99.90;;;;;;5077432;28;20059;-73
2023/05/03 05:35:27;;;;;;;3.70;0.28;;;4.80;99.90;;;;;;5077524;28;20499;-73
2023/05/03 05:37:53;;;;;;;8.45;1.05;;;5.00;99.90;;;;;;5058965;28;20024;-73
2023/05/03 05:40:19;;;;;;;3.60;0.85;;;5.00;99.90;;;;;;5060271;28;20033;-73
2023/05/03 05:42:45;;;;;;;5.43;0.47;;;5.30;99.90;;;;;;5059681;28;20021;-73
2023/05/03 05:45:11;;;;;;;4.68;0.20;;;;;;;;;;5059360;28;20016;-73
2023/05/03 05:47:40;;;;;;;3.95;0.93;;;5.50;99.90;;;;;;5076784;28;20077;-73
2023/05/03 05:50:06;;;;;;;5.85;0.40;;;5.60;99.90;;;;;;5076899;28;20071;-73
2023/05/03 05:52:32;;;;;;;5.32;0.40;;;5.60;99.90;;;;;;5076800;28;20096;-73
2023/05/03 05:54:57;;;;;;;1.98;0.38;;;5.70;99.90;;;;;;5059785;28;20047;-72
2023/05/03 05:57:23;;;;;;;2.35;0.20;;;5.90;99.90;;;;;;5076765;28;20024;-73
2023/05/03 05:59:49;;;;;;;3.20;0.90;;;6.10;99.90;;;;;;5076496;28;20036;-73
2023/05/03 06:02:15;;;;;;;5.60;0.90;;;6.10;99.90;;;;;;5058271;28;20016;-73
2023/05/03 06:04:41;;;;;;;8.73;0.32;;;6.10;99.90;;;;;;5077178;28;20025;-74
2023/05/03 06:07:07;;;;;;;1.77;0.63;;;6.40;99.90;;;;;;5058706;28;20031;-74
2023/05/03 06:09:32;;;;;;;3.17;0.10;;;6.40;99.90;;;;;;5077162;28;20510;-73
2023/05/03 06:11:58;;;;;;;6.50;0.10;;;;;;;;;;5058948;28;20027;-73
2023/05/03 06:14:30;;;;;;;3.20;0.10;;;6.70;99.90;;;;;;5076629;28;20024;-73
2023/05/03 06:16:56;;;;;;;1.85;0.38;;;6.90;99.90;;;;;;5076709;28;20025;-72
2023/05/03 06:19:23;;;;;;;2.95;0.10;;;;;;;;;;5058740;28;20066;-73
2023/05/03 06:21:49;;;;;;;2.80;0.13;;;7.10;99.90;;;;;;5076934;28;20077;-73
2023/05/03 06:24:19;;;;;;;1.15;0.17;;;7.20;99.90;;;;;;5058686;28;20494;-73
2023/05/03 06:26:46;;;;;;;1.75;0.25;;;;;;;;;;5076799;28;20100;-73
2023/05/03 06:29:11;;;;;;;1.60;0.30;;;7.40;99.90;;;;;;5058571;28;20033;-73
2023/05/03 06:31:37;;;;;;;2.17;0.10;;;7.50;99.90;;;;;;5077039;28;20035;-73
2023/05/03 06:34:02;;;;;;;1.40;0.10;;;7.70;99.90;;;;;;5076235;28;20027;-73
2023/05/03 06:36:29;;;;;;;2.40;0.00;;;7.80;99.90;;;;;;5075747;28;20059;-73
2023/05/03 06:38:55;;;;;;;2.72;0.00;;;7.90;99.90;;;;;;5056529;28;20024;-73
2023/05/03 06:41:21;;;;;;;3.10;0.15;;;8.00;99.90;;;;;;5058210;28;20020;-73
2023/05/03 06:43:46;;;;;;;1.00;0.00;;;8.20;99.90;;;;;;5075872;28;20025;-73
2023/05/03 06:46:15;;;;;;;3.25;0.47;;;8.20;99.90;;;;;;5057698;28;20115;-73
2023/05/03 06:48:40;;;;;;;1.08;0.00;;;8.40;99.90;;;;;;5076267;28;20012;-73
2023/05/03 06:51:09;;;;;;;4.32;0.20;;;8.40;99.90;;;;;;5058047;28;20028;-74
2023/05/03 06:53:35;;;;;;;0.80;0.00;;;8.50;99.90;;;;;;5076511;28;20035;-73
2023/05/03 06:56:02;;;;;;;1.50;0.32;;;8.60;99.90;;;;;;5058321;28;20100;-73
2023/05/03 06:58:28;;;;;;;4.00;0.32;;;8.70;99.90;;;;;;5076309;28;20035;-73
2023/05/03 07:00:53;;;;;;;1.05;0.10;;;8.80;99.90;;;;;;5058228;28;20028;-73
2023/05/03 07:03:19;;;;;;;2.72;0.10;;;9.00;99.90;;;;;;5076282;28;20021;-73
2023/05/03 07:05:45;;;;;;;3.85;0.00;;;9.00;99.90;;;;;;5076917;28;20078;-72
2023/05/03 07:08:11;;;;;;;2.20;0.00;;;9.20;99.90;;;;;;5057988;28;20024;-72
2023/05/03 07:10:37;;;;;;;1.20;0.00;;;9.20;99.90;;;;;;5075461;28;20100;-72
2023/05/03 07:13:02;;;;;;;1.75;0.00;;;9.40;99.90;;;;;;5057666;28;20025;-73
2023/05/03 07:15:28;;;;;;;0.52;0.00;;;9.50;99.90;;;;;;5075370;28;20032;-72
2023/05/03 07:17:54;;;;;;;0.65;0.00;;;9.40;99.90;;;;;;5057720;28;20047;-73
2023/05/03 07:20:20;;;;;;;3.05;0.00;;;9.50;99.90;;;;;;5075583;28;20021;-73
2023/05/03 07:22:47;;;;;;;2.65;0.00;;;9.60;99.90;;;;;;5075878;28;20028;-73
2023/05/03 07:25:13;;;;;;;3.60;0.45;;;9.70;99.90;;;;;;5075622;28;20025;-73
2023/05/03 07:27:39;;;;;;;0.90;0.03;;;9.80;99.90;;;;;;5075662;28;20387;-73
2023/05/03 07:30:05;;;;;;;0.57;0.00;;;9.90;99.90;;;;;;5075833;28;20021;-73
2023/05/03 07:32:31;;;;;;;2.85;0.47;;;;;;;;;;5057787;28;20016;-73
2023/05/03 07:34:57;;;;;;;3.03;0.00;;;10.00;99.90;;;;;;5057676;28;20071;-73
2023/05/03 07:37:23;;;;;;;1.35;0.15;;;10.10;99.90;;;;;;5057057;28;20024;-73
2023/05/03 07:39:49;;;;;;;1.33;0.00;;;10.10;99.90;;;;;;5057918;28;20029;-73
2023/05/03 07:42:14;;;;;;;1.55;0.38;;;10.10;99.90;;;;;;5057849;28;20082;-73
2023/05/03 07:44:40;;;;;;;1.45;0.00;;;10.30;99.90;;;;;;5075194;28;20480;-73
2023/05/03 07:47:06;;;;;;;0.32;0.10;;;10.20;99.90;;;;;;5075310;28;20059;-73
2023/05/03 07:49:34;;;;;;;2.08;0.00;;;10.30;99.90;;;;;;5057519;28;20107;-73
2023/05/03 07:52:00;;;;;;;2.47;0.63;;;10.40;99.90;;;;;;5075648;28;20036;-73
2023/05/03 07:54:25;;;;;;;2.17;0.00;;;10.50;99.90;;;;;;5057192;28;20032;-73
2023/05/03 07:56:51;;;;;;;2.50;0.32;;;10.60;99.90;;;;;;5075049;28;20454;-73
2023/05/03 07:59:17;;;;;;;3.17;0.10;;;10.70;99.90;;;;;;5074808;28;20032;-73
2023/05/03 08:01:42;;;;;;;1.38;0.00;;;10.90;99.90;;;;;;5057079;28;20476;-73
2023/05/03 08:04:11;;;;;;;3.08;0.10;;;11.00;99.90;;;;;;5075528;28;20039;-73
2023/05/03 08:06:37;;;;;;;0.00;0.00;;;11.00;99.90;;;;;;5075229;28;20025;-73
2023/05/03 08:09:03;;;;;;;2.47;0.38;;;11.00;99.90;;;;;;5075603;28;20433;-73
2023/05/03 08:11:32;;;;;;;7.13;0.80;;;11.10;99.90;;;;;;5074984;28;20032;-73
2023/05/03 08:13:57;;;;;;;3.97;0.20;;;11.20;99.90;;;;;;5075129;28;20040;-73
2023/05/03 08:16:26;;;;;;;0.38;0.00;;;;;;;;;;5075086;28;20017;-73
2023/05/03 08:18:52;;;;;;;4.35;0.00;;;11.40;99.90;;;;;;5056924;28;20111;-73
2023/05/03 08:21:18;;;;;;;2.40;0.00;;;11.50;99.90;;;;;;5057091;28;20436;-73
2023/05/03 08:23:43;;;;;;;0.40;0.00;;;11.70;99.90;;;;;;5056829;28;20024;-73
2023/05/03 08:26:09;;;;;;;2.85;0.10;;;11.80;99.40;;;;;;5074969;28;20016;-73
2023/05/03 08:28:35;;;;;;;1.85;0.20;;;11.80;99.40;;;;;;5057034;28;20024;-73
2023/05/03 08:31:03;;;;;;;0.43;0.00;;;11.80;99.10;;;;;;5074356;28;20069;-73
2023/05/03 08:33:29;;;;;;;0.95;0.00;;;11.80;99.40;;;;;;5074927;28;20017;-73
2023/05/03 08:35:55;;;;;;;2.40;0.13;;;11.80;99.20;;;;;;5056818;28;20044;-73
2023/05/03 08:38:27;;;;;;;1.13;0.03;;;12.00;99.30;;;;;;5074733;28;20433;-73
2023/05/03 08:40:56;;;;;;;0.45;0.15;;;12.10;99.60;;;;;;5056616;28;20029;-73
2023/05/03 08:43:26;;;;;;;4.13;0.30;;;12.20;98.50;;;;;;5056369;28;20059;-73
2023/05/03 08:45:52;;;;;;;2.80;0.28;;;;;;;;;;5056799;28;20086;-73
2023/05/03 08:48:20;;;;;;;2.83;0.10;;;12.30;96.60;;;;;;5075075;28;20028;-73
2023/05/03 08:50:47;;;;;;;4.30;0.30;;;12.70;96.80;;;;;;5074763;28;20086;-73
2023/05/03 08:53:15;;;;;;;2.38;0.00;;;12.30;97.70;;;;;;5074505;28;20012;-73
2023/05/03 08:55:41;;;;;;;2.72;0.20;;;12.40;97.80;;;;;;5074645;28;20104;-73
2023/05/03 08:58:09;;;;;;;2.10;0.00;;;12.50;96.90;;;;;;5074516;28;20052;-73
2023/05/03 09:00:35;;;;;;;0.83;0.00;;;12.60;96.90;;;;;;5074657;28;20025;-73
2023/05/03 09:03:01;;;;;;;2.28;0.00;;;12.60;97.10;;;;;;5056215;28;20078;-73
2023/05/03 09:05:31;;;;;;;1.20;0.17;;;;;;;;;;5056528;28;20074;-73
2023/05/03 09:08:11;;;;;;;0.80;0.00;;;12.70;96.60;;;;;;5060261;28;20039;-73
2023/05/03 09:10:41;;;;;;;4.13;0.05;;;12.90;95.90;;;;;;5059683;28;20021;-73
2023/05/03 09:13:10;;;;;;;1.52;0.00;;;12.90;96.10;;;;;;5077593;28;20099;-73
2023/05/03 09:15:36;;;;;;;1.55;0.10;;;13.00;95.70;;;;;;5058815;28;20027;-76
2023/05/03 09:18:19;;;;;;;1.52;0.10;;;13.00;94.80;;;;;;5076212;28;20029;-76
2023/05/03 09:20:53;;;;;;;5.03;0.40;;;13.10;95.50;;;;;;5076291;28;20020;-76
2023/05/03 09:23:29;;;;;;;0.63;0.10;;;13.10;95.10;;;;;;5058336;28;20552;-76
2023/05/03 09:25:56;;;;;;;1.08;0.22;;;13.30;93.80;;;;;;5076203;28;20024;-77
2023/05/03 09:28:21;;;;;;;1.23;0.00;;;13.30;92.70;;;;;;5076621;28;20511;-76
2023/05/03 09:31:03;;;;;;;0.45;0.00;;;13.30;93.50;;;;;;5075978;28;20111;-75
2023/05/03 09:33:29;;;;;;;8.15;0.00;;;13.40;93.30;;;;;;5076106;28;20025;-75
2023/05/03 09:35:56;;;;;;;1.48;0.03;;;13.40;93.30;;;;;;5076924;28;20039;-74
2023/05/03 09:38:30;;;;;;;1.95;0.20;;;13.30;91.70;;;;;;5075955;28;20025;-75
2023/05/03 09:40:57;;;;;;;1.70;0.10;;;13.40;92.60;;;;;;5075893;28;20025;-75
2023/05/03 09:43:22;;;;;;;3.75;0.00;;;13.50;93.40;;;;;;5075914;28;20506;-75
2023/05/03 09:45:48;;;;;;;0.85;0.00;;;13.70;92.70;;;;;;5075801;28;20033;-75
2023/05/03 09:48:15;;;;;;;0.10;0.00;;;13.90;92.50;;;;;;5075668;28;20025;-75
2023/05/03 09:50:42;;;;;;;2.97;0.00;;;14.10;92.10;;;;;;5075644;28;20055;-75
2023/05/03 09:53:11;;;;;;;0.98;0.10;;;14.10;91.00;;;;;;5057827;28;20029;-75
2023/05/03 09:55:38;;;;;;;2.47;0.00;;;14.10;91.10;;;;;;5075645;28;20023;-75
2023/05/03 09:58:06;;;;;;;5.57;0.00;;;14.20;90.00;;;;;;5075954;28;20025;-75
2023/05/03 10:00:37;;;;;;;2.60;0.63;;;14.40;90.00;;;;;;5075543;28;20025;-75
2023/05/03 10:03:07;;;;;;;2.17;0.08;;;14.50;89.70;;;;;;5075493;28;20081;-75
2023/05/03 10:05:44;;;;;;;2.58;0.00;;;14.60;88.80;;;;;;5057442;28;20026;-75
2023/05/03 10:08:17;;;;;;;1.80;0.00;;;14.60;86.50;;;;;;5075362;28;20096;-75
2023/05/03 10:10:44;;;;;;;1.85;0.00;;;14.60;85.90;;;;;;5057371;28;20086;-75
2023/05/03 10:13:12;;;;;;;4.28;0.30;;;14.60;89.10;;;;;;5075384;28;20031;-75
2023/05/03 10:15:41;;;;;;;1.13;0.00;;;14.70;85.50;;;;;;5075263;28;20472;-75
2023/05/03 10:18:12;;;;;;;1.40;0.10;;;14.90;86.10;;;;;;5075109;28;20150;-75
2023/05/03 10:20:51;;;;;;;2.83;0.30;;;15.00;86.80;;;;;;5057264;28;20029;-75
2023/05/03 10:23:17;;;;;;;0.50;0.20;;;15.40;83.70;;;;;;5075731;28;20027;-75
2023/05/03 10:26:10;;;;;;;2.75;0.22;;;15.60;84.20;;;;;;5075163;28;20016;-75
2023/05/03 10:28:38;;;;;;;3.88;0.10;;;15.70;81.80;;;;;;5065095;28;20028;-75
2023/05/03 10:31:24;;;;;;;2.60;0.20;;;15.80;80.80;;;;;;5056951;28;20497;-75
2023/05/03 10:33:50;;;;;;;2.35;0.00;;;15.90;80.70;;;;;;5056418;28;20016;-75
2023/05/03 10:36:16;;;;;;;1.80;0.00;;;16.80;81.70;;;;;;5074919;28;20020;-75
2023/05/03 10:38:42;;;;;;;2.38;0.10;;;15.80;79.10;;;;;;5074780;28;20027;-75
2023/05/03 10:41:07;;;;;;;1.05;0.13;;;15.80;78.40;;;;;;5074722;28;20510;-75
2023/05/03 10:43:33;;;;;;;2.17;0.10;;;15.80;79.40;;;;;;5074686;28;20028;-75
2023/05/03 10:46:00;;;;;;;4.68;0.10;;;16.00;78.50;;;;;;5075188;28;20024;-75
2023/05/03 10:48:27;;;;;;;0.98;0.10;;;16.10;80.10;;;;;;5074622;28;20028;-75
2023/05/03 10:50:54;;;;;;;1.27;0.00;;;16.20;77.50;;;;;;5074463;28;20020;-75
2023/05/03 10:53:42;;;;;;;0.85;0.10;;;16.50;73.60;;;;;;5074568;28;20399;-75
2023/05/03 10:56:14;;;;;;;3.00;0.10;;;16.40;73.10;;;;;;5056554;28;20017;-75
2023/05/03 10:58:44;;;;;;;2.55;0.10;;;16.60;73.30;;;;;;5074546;28;20558;-75
2023/05/03 11:01:15;;;;;;;0.22;0.10;;;16.60;70.90;;;;;;5074359;28;20086;-75
2023/05/03 11:03:49;;;;;;;0.73;0.10;;;16.70;71.30;;;;;;5056462;28;20112;-75
2023/05/03 11:06:34;;;;;;;3.17;0.00;;;16.80;74.20;;;;;;5074351;28;20017;-75
2023/05/03 11:09:03;;;;;;;1.65;0.10;;;17.30;70.30;;;;;;5074750;28;20025;-75
2023/05/03 11:11:29;;;;;;;1.45;0.10;;;17.30;71.00;;;;;;5056455;28;20037;-75
2023/05/03 11:13:55;;;;;;;2.35;0.43;;;17.30;71.40;;;;;;5074110;28;20021;-75
2023/05/03 11:16:21;;;;;;;3.17;0.00;;;17.40;73.20;;;;;;5073956;28;20388;-75
2023/05/03 11:18:50;;;;;;;4.03;0.10;;;17.60;72.70;;;;;;5055921;28;20040;-75
2023/05/03 11:21:16;;;;;;;4.03;0.05;;;17.70;70.20;;;;;;5074060;28;20157;-75
2023/05/03 11:23:42;;;;;;;0.50;0.10;;;17.90;69.60;;;;;;5055988;28;20029;-75
2023/05/03 11:26:08;;;;;;;1.80;0.10;;;18.00;67.70;;;;;;5055833;28;20035;-74
2023/05/03 11:28:40;;;;;;;0.65;0.10;;;18.00;69.50;;;;;;5055283;28;20088;-75
2023/05/03 11:31:07;;;;;;;0.88;0.22;;;18.00;68.00;;;;;;5055903;28;20502;-75
2023/05/03 11:33:34;;;;;;;1.05;0.20;;;18.20;66.90;;;;;;5073751;28;20017;-75
2023/05/03 11:36:05;;;;;;;0.82;0.10;;;18.30;67.00;;;;;;5055855;28;20480;-75
2023/05/03 11:38:31;;;;;;;1.98;0.10;;;18.30;66.40;;;;;;5073787;28;20388;-75
2023/05/03 11:40:58;;;;;;;1.80;0.00;;;18.50;67.30;;;;;;5073626;28;20044;-75
2023/05/03 11:43:25;;;;;;;1.02;0.00;;;18.60;63.90;;;;;;5073609;28;20052;-75
2023/05/03 11:45:53;;;;;;;2.22;0.08;;;18.50;62.10;;;;;;5073542;28;20025;-75
2023/05/03 11:48:19;;;;;;;1.83;0.08;;;18.60;63.90;;;;;;5073652;28;20063;-75
2023/05/03 11:50:46;;;;;;;0.25;0.00;;;18.70;63.00;;;;;;5073387;28;20066;-75
2023/05/03 11:53:12;;;;;;;4.03;0.10;;;19.00;62.80;;;;;;5073421;28;20450;-75
2023/05/03 11:55:41;;;;;;;0.43;0.00;;;19.10;62.30;;;;;;5073386;28;20029;-75
2023/05/03 11:58:33;;;;;;;1.13;0.00;;;19.30;62.80;;;;;;5073344;28;20115;-75
2023/05/03 12:00:59;;;;;;;4.60;0.03;;;19.40;59.90;;;;;;5070755;28;20051;-75
2023/05/03 12:03:27;;;;;;;1.85;0.57;;;19.50;61.30;;;;;;5055391;28;20021;-75
2023/05/03 12:05:53;;;;;;;0.93;0.10;;;19.70;63.80;;;;;;5055685;28;20055;-74
2023/05/03 12:08:20;;;;;;;1.60;0.00;;;19.80;57.40;;;;;;5073080;28;20108;-75
2023/05/03 12:10:49;;;;;;;2.47;0.00;;;19.80;58.00;;;;;;5055165;28;20021;-75
2023/05/03 12:13:26;;;;;;;3.72;0.20;;;19.90;60.50;;;;;;5073232;28;20077;-75
2023/05/03 12:15:57;;;;;;;1.95;0.10;;;20.10;59.20;;;;;;5073269;28;20146;-75
2023/05/03 12:18:23;;;;;;;1.45;0.10;;;20.30;57.30;;;;;;5073067;28;20032;-75
2023/05/03 12:20:57;;;;;;;2.60;0.00;;;20.20;55.30;;;;;;5073087;28;20020;-75
2023/05/03 12:23:25;;;;;;;1.85;0.00;;;20.00;56.50;;;;;;5073201;28;20483;-75
2023/05/03 12:25:51;;;;;;;1.42;0.30;;;20.00;58.10;;;;;;5055259;28;20450;-75
2023/05/03 12:28:17;;;;;;;1.13;0.00;;;20.20;59.20;;;;;;5055093;28;20031;-75
2023/05/03 12:30:43;;;;;;;0.65;0.00;;;20.30;55.10;;;;;;5054976;28;20466;-75
2023/05/03 12:33:09;;;;;;;2.53;0.00;;;20.40;56.20;;;;;;5072986;28;20441;-75
2023/05/03 12:35:35;;;;;;;3.35;0.52;;;20.60;55.30;;;;;;5073580;28;20024;-75
2023/05/03 12:38:05;;;;;;;1.48;0.30;;;20.70;57.20;;;;;;5072894;28;20024;-75
2023/05/03 12:40:31;;;;;;;2.30;0.00;;;20.70;56.00;;;;;;5073073;28;20491;-75
2023/05/03 12:42:56;;;;;;;2.35;0.30;;;20.90;55.50;;;;;;5077025;28;20025;-75
2023/05/03 12:45:22;;;;;;;1.23;0.20;;;20.90;56.80;;;;;;5058973;28;20448;-75
2023/05/03 12:47:47;;;;;;;2.38;0.08;;;21.20;56.40;;;;;;5076862;28;20032;-75
2023/05/03 12:50:13;;;;;;;1.30;0.38;;;21.30;56.90;;;;;;5058962;28;20506;-75
2023/05/03 12:52:39;;;;;;;2.08;0.10;;;21.40;55.10;;;;;;5059436;28;20027;-75
2023/05/03 12:55:05;;;;;;;2.30;0.10;;;21.70;53.30;;;;;;5077071;28;20075;-75
2023/05/03 12:57:31;;;;;;;4.03;0.20;;;22.00;54.10;;;;;;5076676;28;20016;-75